Nottingham, United Kingdom

4:57 AM BST on October 21, 2014 (GMT +0100)
Gallows | Change Station
CLOSE
Current Station
Personal Weather Station
Location: Ilkeston, ENGLAND
Elevation: 184 ft
Nearby Weather Stations

Elev 184 ft 52.96 °N, 1.30 °W | Updated 37 seconds ago

Light Rain
Light Rain
54.5 °F
Feels Like 54.5 °F
N
4.0
Wind Variable Wind from NW
Gusts 8.0 mph

Today
High -- | Low -- °F
--% Chance of Precip.
Yesterday
High -- | Low -- °F
Precip. -- in
7:41 AM 5:56 PM
Waning Crescent, 7% visible
Pressure 29.47 in
Visibility 6.2 miles
Clouds Scattered Clouds 1100 ft
Mostly Cloudy 3000 ft
Dew Point 51 °F
Humidity 88%
Rainfall 0.05 in
Snow Depth Not available.
UV 0.0 out of 12
Pollen Not available.
Air Quality Not available.
Flu Activity Not available.
METAR EGNX 210350Z 20021KT 9999 -RA SCT011 BKN030 12/10 Q0998

More Conditions Fewer Conditions

Pressure 29.47 in
Visibility 6.2 miles
Clouds Scattered Clouds 1100 ft
Mostly Cloudy 3000 ft
Dew Point 51 °F
Humidity 88%
Rainfall 0.05 in
Snow Depth Not available.
UV 0.0 out of 12
Pollen Not available.
Air Quality Not available.
Flu Activity Not available.
METAR EGNX 210350Z 20021KT 9999 -RA SCT011 BKN030 12/10 Q0998

More Conditions Fewer Conditions

10-Day Weather Forecast

Almanac

Astronomy

Oct. 21, 2014 Rise Set
Actual Time 7:41 AM BST 5:56 PM BST
Civil Twilight 7:06 AM BST 6:31 PM BST
Nautical Twilight 6:26 AM BST 7:11 PM BST
Astronomical Twilight 5:46 AM BST 7:51 PM BST
Moon 4:53 AM BST 4:58 PM BST
Length of Visible Light 11h 25m
Length of Day
10h 14m
Tomorrow will be 3m 59s shorter.
Waning Crescent, 7% of the Moon is Illuminated
Oct 20
Waning Crescent
Oct 23
New
Oct 30
First Quarter
Nov 6
Full
Nov 14
Last Quarter

Yesterday's Extremes

Country Highs Country Lows

Community

WunderPhotos

Upload Photos

1,763,594 photos uploaded!

Nearby

Snow Depth

Not available.

Earthquake Activity

City Distance Mag. Time & Date
No recent earthquake activity has been reported nearby.
Minimum magnitude displayed is 2.5.

Coastal Water Temperatures

Place Temperature
No Stations Reporting

Nearby Weather Stations